sensor_id;sensor_type;location;lat;lon;timestamp;pressure;altitude;pressure_sealevel;temperature;humidity
12360;BME280;6244;51.460;7.090;2023-12-20T00:03:18;100498.94;;;6.47;100.00
12360;BME280;6244;51.460;7.090;2023-12-20T00:08:15;100494.72;;;6.43;100.00
12360;BME280;6244;51.460;7.090;2023-12-20T00:13:13;100498.34;;;6.39;100.00
12360;BME280;6244;51.460;7.090;2023-12-20T00:18:09;100501.88;;;6.38;100.00
12360;BME280;6244;51.460;7.090;2023-12-20T00:23:06;100502.97;;;6.31;100.00
12360;BME280;6244;51.460;7.090;2023-12-20T00:28:03;100507.69;;;6.22;100.00
12360;BME280;6244;51.460;7.090;2023-12-20T00:33:01;100529.59;;;6.16;100.00
12360;BME280;6244;51.460;7.090;2023-12-20T00:37:58;100526.41;;;6.08;100.00
12360;BME280;6244;51.460;7.090;2023-12-20T00:42:54;100529.22;;;6.02;100.00
12360;BME280;6244;51.460;7.090;2023-12-20T00:47:51;100535.63;;;5.92;100.00
12360;BME280;6244;51.460;7.090;2023-12-20T00:52:49;100533.81;;;5.94;100.00
12360;BME280;6244;51.460;7.090;2023-12-20T00:57:45;100546.84;;;5.94;100.00
12360;BME280;6244;51.460;7.090;2023-12-20T01:02:42;100533.31;;;5.82;100.00
12360;BME280;6244;51.460;7.090;2023-12-20T01:07:39;100532.25;;;5.88;100.00
12360;BME280;6244;51.460;7.090;2023-12-20T01:12:37;100530.50;;;5.88;100.00
12360;BME280;6244;51.460;7.090;2023-12-20T01:17:33;100532.22;;;5.89;100.00
12360;BME280;6244;51.460;7.090;2023-12-20T01:22:30;100544.53;;;5.84;100.00
12360;BME280;6244;51.460;7.090;2023-12-20T01:27:26;100541.13;;;5.82;100.00
12360;BME280;6244;51.460;7.090;2023-12-20T01:32:24;100552.59;;;5.77;100.00
12360;BME280;6244;51.460;7.090;2023-12-20T01:37:21;100564.66;;;5.79;100.00
12360;BME280;6244;51.460;7.090;2023-12-20T01:42:19;100562.22;;;5.75;100.00
12360;BME280;6244;51.460;7.090;2023-12-20T01:47:16;100571.06;;;5.69;100.00
12360;BME280;6244;51.460;7.090;2023-12-20T01:52:14;100556.59;;;5.60;100.00
12360;BME280;6244;51.460;7.090;2023-12-20T01:57:11;100549.03;;;5.53;100.00
12360;BME280;6244;51.460;7.090;2023-12-20T02:02:08;100557.06;;;5.47;100.00
12360;BME280;6244;51.460;7.090;2023-12-20T02:07:04;100547.88;;;5.35;100.00
12360;BME280;6244;51.460;7.090;2023-12-20T02:12:03;100550.81;;;5.24;100.00
12360;BME280;6244;51.460;7.090;2023-12-20T02:17:00;100552.66;;;5.21;100.00
12360;BME280;6244;51.460;7.090;2023-12-20T02:22:08;100550.88;;;5.23;100.00
12360;BME280;6244;51.460;7.090;2023-12-20T02:27:06;100549.16;;;5.22;100.00
12360;BME280;6244;51.460;7.090;2023-12-20T02:32:03;100540.50;;;5.21;100.00
12360;BME280;6244;51.460;7.090;2023-12-20T02:37:00;100552.78;;;5.16;100.00
12360;BME280;6244;51.460;7.090;2023-12-20T02:41:57;100552.66;;;5.21;100.00
12360;BME280;6244;51.460;7.090;2023-12-20T02:46:54;100557.75;;;5.24;100.00
12360;BME280;6244;51.460;7.090;2023-12-20T02:51:51;100547.34;;;5.24;100.00
12360;BME280;6244;51.460;7.090;2023-12-20T02:56:47;100552.72;;;5.18;100.00
12360;BME280;6244;51.460;7.090;2023-12-20T03:01:45;100564.03;;;5.17;100.00
12360;BME280;6244;51.460;7.090;2023-12-20T03:06:42;100566.78;;;5.12;100.00
12360;BME280;6244;51.460;7.090;2023-12-20T03:11:39;100558.97;;;5.12;100.00
12360;BME280;6244;51.460;7.090;2023-12-20T03:16:35;100561.84;;;5.03;100.00
12360;BME280;6244;51.460;7.090;2023-12-20T03:21:33;100556.84;;;4.97;100.00
12360;BME280;6244;51.460;7.090;2023-12-20T03:26:30;100558.63;;;4.95;100.00
12360;BME280;6244;51.460;7.090;2023-12-20T03:31:26;100558.00;;;4.87;100.00
12360;BME280;6244;51.460;7.090;2023-12-20T03:36:23;100549.44;;;4.83;100.00
12360;BME280;6244;51.460;7.090;2023-12-20T03:41:22;100546.22;;;4.75;100.00
12360;BME280;6244;51.460;7.090;2023-12-20T03:46:18;100543.91;;;4.64;100.00
12360;BME280;6244;51.460;7.090;2023-12-20T03:51:15;100537.97;;;4.61;100.00
12360;BME280;6244;51.460;7.090;2023-12-20T03:56:11;100547.28;;;4.68;100.00
12360;BME280;6244;51.460;7.090;2023-12-20T04:01:10;100552.56;;;4.65;100.00
12360;BME280;6244;51.460;7.090;2023-12-20T04:06:07;100554.53;;;4.57;100.00
12360;BME280;6244;51.460;7.090;2023-12-20T04:11:04;100544.13;;;4.57;100.00
12360;BME280;6244;51.460;7.090;2023-12-20T04:16:00;100536.44;;;4.54;100.00
12360;BME280;6244;51.460;7.090;2023-12-20T04:20:58;100528.78;;;4.49;100.00
12360;BME280;6244;51.460;7.090;2023-12-20T04:25:55;100537.47;;;4.48;100.00
12360;BME280;6244;51.460;7.090;2023-12-20T04:30:51;100536.38;;;4.55;100.00
12360;BME280;6244;51.460;7.090;2023-12-20T04:35:48;100541.53;;;4.57;100.00
12360;BME280;6244;51.460;7.090;2023-12-20T04:40:46;100550.06;;;4.62;100.00
12360;BME280;6244;51.460;7.090;2023-12-20T04:45:43;100550.78;;;4.67;100.00
12360;BME280;6244;51.460;7.090;2023-12-20T04:50:39;100547.06;;;4.76;100.00
12360;BME280;6244;51.460;7.090;2023-12-20T04:55:36;100554.59;;;4.85;100.00
12360;BME280;6244;51.460;7.090;2023-12-20T05:00:34;100556.16;;;4.90;100.00
12360;BME280;6244;51.460;7.090;2023-12-20T05:05:30;100559.56;;;4.92;100.00
12360;BME280;6244;51.460;7.090;2023-12-20T05:10:27;100557.00;;;4.91;100.00
12360;BME280;6244;51.460;7.090;2023-12-20T05:15:23;100560.50;;;4.90;100.00
12360;BME280;6244;51.460;7.090;2023-12-20T05:20:21;100553.03;;;4.79;100.00
12360;BME280;6244;51.460;7.090;2023-12-20T05:25:18;100568.47;;;4.85;100.00
12360;BME280;6244;51.460;7.090;2023-12-20T05:30:14;100552.75;;;4.88;100.00
12360;BME280;6244;51.460;7.090;2023-12-20T05:35:11;100551.81;;;4.91;100.00
12360;BME280;6244;51.460;7.090;2023-12-20T05:40:10;100541.50;;;4.88;100.00
12360;BME280;6244;51.460;7.090;2023-12-20T05:45:07;100528.41;;;4.91;100.00
12360;BME280;6244;51.460;7.090;2023-12-20T05:50:05;100535.31;;;4.92;100.00
12360;BME280;6244;51.460;7.090;2023-12-20T05:55:01;100534.56;;;4.88;100.00
12360;BME280;6244;51.460;7.090;2023-12-20T05:59:59;100541.56;;;4.86;100.00
12360;BME280;6244;51.460;7.090;2023-12-20T06:04:56;100541.50;;;4.88;100.00
12360;BME280;6244;51.460;7.090;2023-12-20T06:09:53;100538.06;;;4.87;100.00
12360;BME280;6244;51.460;7.090;2023-12-20T06:14:50;100543.06;;;4.93;100.00
12360;BME280;6244;51.460;7.090;2023-12-20T06:19:48;100546.63;;;4.91;100.00
12360;BME280;6244;51.460;7.090;2023-12-20T06:24:44;100540.47;;;4.93;100.00
12360;BME280;6244;51.460;7.090;2023-12-20T06:29:41;100542.31;;;4.90;100.00
12360;BME280;6244;51.460;7.090;2023-12-20T06:34:39;100549.97;;;4.94;100.00
12360;BME280;6244;51.460;7.090;2023-12-20T06:39:37;100541.31;;;4.94;100.00
12360;BME280;6244;51.460;7.090;2023-12-20T06:44:33;100550.81;;;4.95;100.00
12360;BME280;6244;51.460;7.090;2023-12-20T06:49:30;100553.34;;;4.98;100.00
12360;BME280;6244;51.460;7.090;2023-12-20T06:54:27;100545.59;;;4.96;100.00
12360;BME280;6244;51.460;7.090;2023-12-20T06:59:24;100540.31;;;4.99;100.00
12360;BME280;6244;51.460;7.090;2023-12-20T07:04:21;100555.84;;;5.01;100.00
12360;BME280;6244;51.460;7.090;2023-12-20T07:09:18;100544.66;;;4.99;100.00
12360;BME280;6244;51.460;7.090;2023-12-20T07:14:14;100529.84;;;5.01;100.00
12360;BME280;6244;51.460;7.090;2023-12-20T07:19:12;100529.78;;;5.03;100.00
12360;BME280;6244;51.460;7.090;2023-12-20T07:24:09;100541.06;;;5.03;100.00
12360;BME280;6244;51.460;7.090;2023-12-20T07:29:05;100531.50;;;5.04;100.00
12360;BME280;6244;51.460;7.090;2023-12-20T07:34:02;100546.09;;;5.09;100.00
12360;BME280;6244;51.460;7.090;2023-12-20T07:39:00;100528.69;;;5.11;100.00
12360;BME280;6244;51.460;7.090;2023-12-20T07:43:56;100542.25;;;5.21;100.00
12360;BME280;6244;51.460;7.090;2023-12-20T07:48:53;100534.44;;;5.21;100.00
12360;BME280;6244;51.460;7.090;2023-12-20T07:53:49;100546.47;;;5.25;100.00
12360;BME280;6244;51.460;7.090;2023-12-20T07:58:47;100548.91;;;5.29;100.00
12360;BME280;6244;51.460;7.090;2023-12-20T08:03:44;100541.00;;;5.32;100.00
12360;BME280;6244;51.460;7.090;2023-12-20T08:08:40;100534.75;;;5.38;100.00
12360;BME280;6244;51.460;7.090;2023-12-20T08:13:37;100530.41;;;5.39;100.00
12360;BME280;6244;51.460;7.090;2023-12-20T08:18:35;100538.13;;;5.42;100.00
12360;BME280;6244;51.460;7.090;2023-12-20T08:23:31;100520.00;;;5.39;100.00
12360;BME280;6244;51.460;7.090;2023-12-20T08:28:27;100538.84;;;5.47;100.00
12360;BME280;6244;51.460;7.090;2023-12-20T08:33:24;100535.38;;;5.46;100.00
12360;BME280;6244;51.460;7.090;2023-12-20T08:38:22;100555.25;;;5.49;100.00
12360;BME280;6244;51.460;7.090;2023-12-20T08:43:18;100550.84;;;5.51;100.00
12360;BME280;6244;51.460;7.090;2023-12-20T08:48:15;100555.94;;;5.54;100.00
12360;BME280;6244;51.460;7.090;2023-12-20T08:53:11;100539.41;;;5.55;100.00
12360;BME280;6244;51.460;7.090;2023-12-20T08:58:10;100542.03;;;5.55;100.00
12360;BME280;6244;51.460;7.090;2023-12-20T09:03:06;100530.81;;;5.53;100.00
12360;BME280;6244;51.460;7.090;2023-12-20T09:08:04;100543.84;;;5.53;100.00
12360;BME280;6244;51.460;7.090;2023-12-20T09:13:00;100529.00;;;5.55;100.00
12360;BME280;6244;51.460;7.090;2023-12-20T09:17:59;100528.06;;;5.57;100.00
12360;BME280;6244;51.460;7.090;2023-12-20T09:22:55;100537.66;;;5.55;100.00
12360;BME280;6244;51.460;7.090;2023-12-20T09:27:52;100542.81;;;5.57;100.00
12360;BME280;6244;51.460;7.090;2023-12-20T09:32:49;100542.75;;;5.60;100.00
12360;BME280;6244;51.460;7.090;2023-12-20T09:37:47;100503.59;;;5.63;100.00
12360;BME280;6244;51.460;7.090;2023-12-20T09:42:47;100532.97;;;5.67;99.46
12360;BME280;6244;51.460;7.090;2023-12-20T09:47:45;100522.50;;;5.68;99.54
12360;BME280;6244;51.460;7.090;2023-12-20T09:52:43;100531.09;;;5.70;99.62
12360;BME280;6244;51.460;7.090;2023-12-20T09:57:41;100523.22;;;5.73;99.58
12360;BME280;6244;51.460;7.090;2023-12-20T10:02:38;100528.44;;;5.73;99.56
12360;BME280;6244;51.460;7.090;2023-12-20T10:07:38;100519.72;;;5.74;99.73
12360;BME280;6244;51.460;7.090;2023-12-20T10:12:38;100518.75;;;5.77;99.95
12360;BME280;6244;51.460;7.090;2023-12-20T10:17:36;100515.97;;;5.83;98.70
12360;BME280;6244;51.460;7.090;2023-12-20T10:22:32;100520.44;;;5.78;100.00
12360;BME280;6244;51.460;7.090;2023-12-20T10:27:29;100508.28;;;5.78;100.00
12360;BME280;6244;51.460;7.090;2023-12-20T10:32:27;100497.88;;;5.78;100.00
12360;BME280;6244;51.460;7.090;2023-12-20T10:37:25;100488.06;;;5.86;100.00
12360;BME280;6244;51.460;7.090;2023-12-20T10:42:26;100487.00;;;5.92;99.84
12360;BME280;6244;51.460;7.090;2023-12-20T10:47:25;100504.28;;;5.95;99.38
12360;BME280;6244;51.460;7.090;2023-12-20T10:52:24;100486.09;;;5.93;99.63
12360;BME280;6244;51.460;7.090;2023-12-20T10:57:22;100473.94;;;5.94;99.15
12360;BME280;6244;51.460;7.090;2023-12-20T11:02:19;100488.84;;;5.88;100.00
12360;BME280;6244;51.460;7.090;2023-12-20T11:07:19;100500.09;;;5.91;100.00
12360;BME280;6244;51.460;7.090;2023-12-20T11:12:23;100511.38;;;5.89;100.00
12360;BME280;6244;51.460;7.090;2023-12-20T11:17:22;100495.63;;;5.94;100.00
12360;BME280;6244;51.460;7.090;2023-12-20T11:22:20;100494.63;;;5.98;100.00
12360;BME280;6244;51.460;7.090;2023-12-20T11:27:19;100480.84;;;5.95;100.00
12360;BME280;6244;51.460;7.090;2023-12-20T11:32:28;100479.25;;;5.91;100.00
12360;BME280;6244;51.460;7.090;2023-12-20T11:37:29;100472.19;;;5.94;100.00
12360;BME280;6244;51.460;7.090;2023-12-20T11:42:28;100479.91;;;5.97;100.00
12360;BME280;6244;51.460;7.090;2023-12-20T11:47:29;100470.34;;;5.98;100.00
12360;BME280;6244;51.460;7.090;2023-12-20T11:52:25;100457.25;;;5.99;100.00
12360;BME280;6244;51.460;7.090;2023-12-20T11:57:22;100463.19;;;6.03;100.00
12360;BME280;6244;51.460;7.090;2023-12-20T12:02:20;100464.41;;;5.93;100.00
12360;BME280;6244;51.460;7.090;2023-12-20T12:07:16;100438.94;;;5.76;100.00
12360;BME280;6244;51.460;7.090;2023-12-20T12:12:13;100437.38;;;5.70;100.00
12360;BME280;6244;51.460;7.090;2023-12-20T12:17:10;100438.22;;;5.72;100.00
12360;BME280;6244;51.460;7.090;2023-12-20T12:22:10;100425.03;;;5.77;100.00
12360;BME280;6244;51.460;7.090;2023-12-20T12:27:09;100417.16;;;5.78;100.00
12360;BME280;6244;51.460;7.090;2023-12-20T12:32:06;100429.84;;;5.87;100.00
12360;BME280;6244;51.460;7.090;2023-12-20T12:37:04;100423.59;;;5.93;100.00
12360;BME280;6244;51.460;7.090;2023-12-20T12:42:02;100429.66;;;5.94;100.00
12360;BME280;6244;51.460;7.090;2023-12-20T12:46:59;100420.00;;;5.97;100.00
12360;BME280;6244;51.460;7.090;2023-12-20T12:51:57;100417.41;;;5.97;100.00
12360;BME280;6244;51.460;7.090;2023-12-20T12:56:54;100399.72;;;6.05;100.00
12360;BME280;6244;51.460;7.090;2023-12-20T13:01:52;100411.69;;;6.11;100.00
12360;BME280;6244;51.460;7.090;2023-12-20T13:06:48;100404.66;;;6.13;100.00
12360;BME280;6244;51.460;7.090;2023-12-20T13:11:45;100395.09;;;6.13;100.00
12360;BME280;6244;51.460;7.090;2023-12-20T13:16:42;100376.97;;;6.10;100.00
12360;BME280;6244;51.460;7.090;2023-12-20T13:21:41;100369.16;;;6.10;100.00
12360;BME280;6244;51.460;7.090;2023-12-20T13:26:38;100358.03;;;6.05;100.00
12360;BME280;6244;51.460;7.090;2023-12-20T13:31:34;100349.50;;;6.02;100.00
12360;BME280;6244;51.460;7.090;2023-12-20T13:36:32;100354.97;;;5.94;100.00
12360;BME280;6244;51.460;7.090;2023-12-20T13:41:30;100346.81;;;5.80;100.00
12360;BME280;6244;51.460;7.090;2023-12-20T13:46:27;100363.50;;;5.74;100.00
12360;BME280;6244;51.460;7.090;2023-12-20T13:51:23;100359.34;;;5.69;100.00
12360;BME280;6244;51.460;7.090;2023-12-20T13:56:20;100343.00;;;5.65;100.00
12360;BME280;6244;51.460;7.090;2023-12-20T14:01:19;100330.03;;;5.64;100.00
12360;BME280;6244;51.460;7.090;2023-12-20T14:06:16;100341.38;;;5.63;100.00
12360;BME280;6244;51.460;7.090;2023-12-20T14:11:13;100333.56;;;5.63;100.00
12360;BME280;6244;51.460;7.090;2023-12-20T14:16:10;100337.00;;;5.63;100.00
12360;BME280;6244;51.460;7.090;2023-12-20T14:21:09;100324.59;;;5.70;100.00
12360;BME280;6244;51.460;7.090;2023-12-20T14:26:05;100313.34;;;5.69;100.00
12360;BME280;6244;51.460;7.090;2023-12-20T14:31:02;100331.53;;;5.71;100.00
12360;BME280;6244;51.460;7.090;2023-12-20T14:35:58;100329.06;;;5.66;100.00
12360;BME280;6244;51.460;7.090;2023-12-20T14:40:56;100341.19;;;5.67;100.00
12360;BME280;6244;51.460;7.090;2023-12-20T14:45:53;100328.16;;;5.67;100.00
12360;BME280;6244;51.460;7.090;2023-12-20T14:50:49;100344.63;;;5.68;100.00
12360;BME280;6244;51.460;7.090;2023-12-20T14:55:47;100322.06;;;5.68;100.00
12360;BME280;6244;51.460;7.090;2023-12-20T15:00:46;100330.50;;;5.75;100.00
12360;BME280;6244;51.460;7.090;2023-12-20T15:05:43;100342.69;;;5.74;100.00
12360;BME280;6244;51.460;7.090;2023-12-20T15:10:39;100320.03;;;5.76;100.00
12360;BME280;6244;51.460;7.090;2023-12-20T15:15:36;100325.00;;;5.82;100.00
12360;BME280;6244;51.460;7.090;2023-12-20T15:20:34;100330.13;;;5.85;100.00
12360;BME280;6244;51.460;7.090;2023-12-20T15:25:32;100318.78;;;5.86;100.00
12360;BME280;6244;51.460;7.090;2023-12-20T15:30:28;100308.22;;;5.91;100.00
12360;BME280;6244;51.460;7.090;2023-12-20T15:35:25;100318.66;;;5.91;100.00
12360;BME280;6244;51.460;7.090;2023-12-20T15:40:23;100326.41;;;5.93;100.00
12360;BME280;6244;51.460;7.090;2023-12-20T15:45:19;100334.97;;;5.96;100.00
12360;BME280;6244;51.460;7.090;2023-12-20T15:50:16;100324.38;;;6.01;100.00
12360;BME280;6244;51.460;7.090;2023-12-20T15:55:13;100309.31;;;6.09;100.00
12360;BME280;6244;51.460;7.090;2023-12-20T16:00:11;100314.34;;;6.13;100.00
12360;BME280;6244;51.460;7.090;2023-12-20T16:05:08;100308.16;;;6.16;100.00
12360;BME280;6244;51.460;7.090;2023-12-20T16:10:05;100309.00;;;6.16;100.00
12360;BME280;6244;51.460;7.090;2023-12-20T16:15:02;100288.03;;;6.19;100.00
12360;BME280;6244;51.460;7.090;2023-12-20T16:20:00;100282.72;;;6.23;100.00
12360;BME280;6244;51.460;7.090;2023-12-20T16:24:57;100285.34;;;6.23;100.00
12360;BME280;6244;51.460;7.090;2023-12-20T16:29:53;100287.16;;;6.21;100.00
12360;BME280;6244;51.460;7.090;2023-12-20T16:34:50;100279.94;;;6.27;100.00
12360;BME280;6244;51.460;7.090;2023-12-20T16:39:49;100285.06;;;6.29;100.00
12360;BME280;6244;51.460;7.090;2023-12-20T16:44:45;100282.34;;;6.32;100.00
12360;BME280;6244;51.460;7.090;2023-12-20T16:49:42;100271.25;;;6.27;100.00
12360;BME280;6244;51.460;7.090;2023-12-20T16:54:38;100267.09;;;6.23;100.00
12360;BME280;6244;51.460;7.090;2023-12-20T16:59:36;100266.97;;;6.26;100.00
12360;BME280;6244;51.460;7.090;2023-12-20T17:04:33;100255.81;;;6.22;100.00
12360;BME280;6244;51.460;7.090;2023-12-20T17:09:31;100254.06;;;6.23;100.00
12360;BME280;6244;51.460;7.090;2023-12-20T17:14:27;100240.91;;;6.26;100.00
12360;BME280;6244;51.460;7.090;2023-12-20T17:19:25;100233.16;;;6.24;100.00
12360;BME280;6244;51.460;7.090;2023-12-20T17:24:24;100230.50;;;6.26;100.00
12360;BME280;6244;51.460;7.090;2023-12-20T17:29:21;100215.06;;;6.21;100.00
12360;BME280;6244;51.460;7.090;2023-12-20T17:34:18;100218.50;;;6.22;100.00
12360;BME280;6244;51.460;7.090;2023-12-20T17:39:16;100208.25;;;6.17;100.00
12360;BME280;6244;51.460;7.090;2023-12-20T17:44:12;100212.63;;;6.16;100.00
12360;BME280;6244;51.460;7.090;2023-12-20T17:49:10;100203.03;;;6.17;100.00
12360;BME280;6244;51.460;7.090;2023-12-20T17:54:07;100188.16;;;6.21;100.00
12360;BME280;6244;51.460;7.090;2023-12-20T17:59:05;100181.13;;;6.23;100.00
12360;BME280;6244;51.460;7.090;2023-12-20T18:04:01;100173.09;;;6.27;100.00
12360;BME280;6244;51.460;7.090;2023-12-20T18:08:58;100169.44;;;6.31;100.00
12360;BME280;6244;51.460;7.090;2023-12-20T18:13:55;100155.66;;;6.29;100.00
12360;BME280;6244;51.460;7.090;2023-12-20T18:18:52;100158.94;;;6.34;100.00
12360;BME280;6244;51.460;7.090;2023-12-20T18:23:49;100166.47;;;6.40;100.00
12360;BME280;6244;51.460;7.090;2023-12-20T18:28:46;100141.13;;;6.44;100.00
12360;BME280;6244;51.460;7.090;2023-12-20T18:33:42;100138.06;;;6.55;100.00
12360;BME280;6244;51.460;7.090;2023-12-20T18:38:40;100120.09;;;6.48;100.00
12360;BME280;6244;51.460;7.090;2023-12-20T18:43:37;100114.53;;;6.56;100.00
12360;BME280;6244;51.460;7.090;2023-12-20T18:48:33;100089.31;;;6.57;100.00
12360;BME280;6244;51.460;7.090;2023-12-20T18:53:30;100103.34;;;6.54;100.00
12360;BME280;6244;51.460;7.090;2023-12-20T18:58:27;100091.16;;;6.55;100.00
12360;BME280;6244;51.460;7.090;2023-12-20T19:03:27;100089.97;;;6.62;100.00
12360;BME280;6244;51.460;7.090;2023-12-20T19:08:23;100092.50;;;6.63;100.00
12360;BME280;6244;51.460;7.090;2023-12-20T19:13:20;100083.84;;;6.63;100.00
12360;BME280;6244;51.460;7.090;2023-12-20T19:18:18;100083.84;;;6.63;100.00
12360;BME280;6244;51.460;7.090;2023-12-20T19:23:14;100056.09;;;6.62;100.00
12360;BME280;6244;51.460;7.090;2023-12-20T19:28:11;100063.38;;;6.54;100.00
12360;BME280;6244;51.460;7.090;2023-12-20T19:33:08;100054.53;;;6.58;100.00
12360;BME280;6244;51.460;7.090;2023-12-20T19:38:06;100041.56;;;6.56;100.00
12360;BME280;6244;51.460;7.090;2023-12-20T19:43:03;100034.41;;;6.61;100.00
12360;BME280;6244;51.460;7.090;2023-12-20T19:48:04;100040.16;;;6.68;100.00
12360;BME280;6244;51.460;7.090;2023-12-20T19:53:00;100034.53;;;6.77;100.00
12360;BME280;6244;51.460;7.090;2023-12-20T19:57:58;100035.31;;;6.79;100.00
12360;BME280;6244;51.460;7.090;2023-12-20T20:02:55;100021.00;;;6.69;100.00
12360;BME280;6244;51.460;7.090;2023-12-20T20:07:51;100012.84;;;6.58;100.00
12360;BME280;6244;51.460;7.090;2023-12-20T20:12:48;99993.09;;;6.52;100.00
12360;BME280;6244;51.460;7.090;2023-12-20T20:17:45;99997.47;;;6.52;100.00
12360;BME280;6244;51.460;7.090;2023-12-20T20:22:42;99981.81;;;6.52;100.00
12360;BME280;6244;51.460;7.090;2023-12-20T20:27:38;99957.66;;;6.48;100.00
12360;BME280;6244;51.460;7.090;2023-12-20T20:32:35;99964.63;;;6.47;100.00
12360;BME280;6244;51.460;7.090;2023-12-20T20:37:33;99965.41;;;6.50;100.00
12360;BME280;6244;51.460;7.090;2023-12-20T20:42:30;99957.44;;;6.53;100.00
12360;BME280;6244;51.460;7.090;2023-12-20T20:47:26;99964.41;;;6.52;100.00
12360;BME280;6244;51.460;7.090;2023-12-20T20:52:23;99965.97;;;6.56;100.00
12360;BME280;6244;51.460;7.090;2023-12-20T20:57:21;99958.94;;;6.58;100.00
12360;BME280;6244;51.460;7.090;2023-12-20T21:02:17;99953.72;;;6.58;100.00
12360;BME280;6244;51.460;7.090;2023-12-20T21:07:15;99936.44;;;6.56;100.00
12360;BME280;6244;51.460;7.090;2023-12-20T21:12:12;99940.13;;;6.52;100.00
12360;BME280;6244;51.460;7.090;2023-12-20T21:17:09;99945.94;;;6.57;100.00
12360;BME280;6244;51.460;7.090;2023-12-20T21:22:06;99940.75;;;6.57;100.00
12360;BME280;6244;51.460;7.090;2023-12-20T21:27:03;99938.00;;;6.60;100.00
12360;BME280;6244;51.460;7.090;2023-12-20T21:31:59;99934.63;;;6.58;100.00
12360;BME280;6244;51.460;7.090;2023-12-20T21:36:58;99917.16;;;6.60;100.00
12360;BME280;6244;51.460;7.090;2023-12-20T21:41:55;99902.22;;;6.63;100.00
12360;BME280;6244;51.460;7.090;2023-12-20T21:46:51;99897.84;;;6.64;100.00
12360;BME280;6244;51.460;7.090;2023-12-20T21:51:48;99890.88;;;6.64;100.00
12360;BME280;6244;51.460;7.090;2023-12-20T21:56:46;99878.69;;;6.65;100.00
12360;BME280;6244;51.460;7.090;2023-12-20T22:01:43;99876.00;;;6.66;100.00
12360;BME280;6244;51.460;7.090;2023-12-20T22:06:40;99857.91;;;6.63;100.00
12360;BME280;6244;51.460;7.090;2023-12-20T22:11:36;99845.63;;;6.65;100.00
12360;BME280;6244;51.460;7.090;2023-12-20T22:16:35;99842.09;;;6.66;100.00
12360;BME280;6244;51.460;7.090;2023-12-20T22:21:36;99849.94;;;6.66;100.00
12360;BME280;6244;51.460;7.090;2023-12-20T22:26:32;99840.25;;;6.68;100.00
12360;BME280;6244;51.460;7.090;2023-12-20T22:31:29;99840.13;;;6.71;100.00
12360;BME280;6244;51.460;7.090;2023-12-20T22:36:27;99856.63;;;6.72;100.00
12360;BME280;6244;51.460;7.090;2023-12-20T22:41:25;99863.44;;;6.74;100.00
12360;BME280;6244;51.460;7.090;2023-12-20T22:46:21;99861.84;;;6.72;100.00
12360;BME280;6244;51.460;7.090;2023-12-20T22:51:18;99853.78;;;6.76;100.00
12360;BME280;6244;51.460;7.090;2023-12-20T22:56:16;99850.25;;;6.77;100.00
12360;BME280;6244;51.460;7.090;2023-12-20T23:01:13;99848.34;;;6.81;100.00
12360;BME280;6244;51.460;7.090;2023-12-20T23:06:09;99843.13;;;6.81;100.00
12360;BME280;6244;51.460;7.090;2023-12-20T23:11:06;99836.03;;;6.85;100.00
12360;BME280;6244;51.460;7.090;2023-12-20T23:16:04;99815.16;;;6.85;100.00
12360;BME280;6244;51.460;7.090;2023-12-20T23:21:01;99823.66;;;6.88;100.00
12360;BME280;6244;51.460;7.090;2023-12-20T23:25:58;99823.66;;;6.88;100.00
12360;BME280;6244;51.460;7.090;2023-12-20T23:30:54;99811.38;;;6.90;100.00
12360;BME280;6244;51.460;7.090;2023-12-20T23:35:52;99797.50;;;6.90;100.00
12360;BME280;6244;51.460;7.090;2023-12-20T23:40:48;99781.69;;;6.93;100.00
12360;BME280;6244;51.460;7.090;2023-12-20T23:45:45;99759.88;;;6.95;100.00
12360;BME280;6244;51.460;7.090;2023-12-20T23:50:42;99741.53;;;6.97;100.00
12360;BME280;6244;51.460;7.090;2023-12-20T23:55:40;99741.44;;;6.98;100.00
